sensor_id;sensor_type;location;lat;lon;timestamp;temperature;humidity
24384;DHT22;12504;52.870;8.798;2023-08-06T00:02:23;13.40;99.90
24384;DHT22;12504;52.870;8.798;2023-08-06T00:04:49;13.40;99.90
24384;DHT22;12504;52.870;8.798;2023-08-06T00:07:14;13.40;99.90
24384;DHT22;12504;52.870;8.798;2023-08-06T00:09:40;13.50;99.90
24384;DHT22;12504;52.870;8.798;2023-08-06T00:12:06;13.50;99.90
24384;DHT22;12504;52.870;8.798;2023-08-06T00:14:31;13.50;99.90
24384;DHT22;12504;52.870;8.798;2023-08-06T00:16:57;13.50;99.90
24384;DHT22;12504;52.870;8.798;2023-08-06T00:19:22;13.50;99.90
24384;DHT22;12504;52.870;8.798;2023-08-06T00:21:48;13.50;99.90
24384;DHT22;12504;52.870;8.798;2023-08-06T00:24:14;13.50;99.90
24384;DHT22;12504;52.870;8.798;2023-08-06T00:26:39;13.50;99.90
24384;DHT22;12504;52.870;8.798;2023-08-06T00:29:05;13.50;99.90
24384;DHT22;12504;52.870;8.798;2023-08-06T00:31:30;13.50;99.90
24384;DHT22;12504;52.870;8.798;2023-08-06T00:33:56;13.60;99.90
24384;DHT22;12504;52.870;8.798;2023-08-06T00:36:22;13.60;99.90
24384;DHT22;12504;52.870;8.798;2023-08-06T00:38:48;13.60;99.90
24384;DHT22;12504;52.870;8.798;2023-08-06T00:41:14;13.60;99.90
24384;DHT22;12504;52.870;8.798;2023-08-06T00:43:40;13.50;99.90
24384;DHT22;12504;52.870;8.798;2023-08-06T00:46:05;13.60;99.90
24384;DHT22;12504;52.870;8.798;2023-08-06T00:48:31;13.50;99.90
24384;DHT22;12504;52.870;8.798;2023-08-06T00:50:57;13.60;99.90
24384;DHT22;12504;52.870;8.798;2023-08-06T00:53:23;13.50;99.90
24384;DHT22;12504;52.870;8.798;2023-08-06T00:55:49;13.50;99.90
24384;DHT22;12504;52.870;8.798;2023-08-06T00:58:16;13.50;99.90
24384;DHT22;12504;52.870;8.798;2023-08-06T01:00:41;13.50;99.90
24384;DHT22;12504;52.870;8.798;2023-08-06T01:03:08;13.50;99.90
24384;DHT22;12504;52.870;8.798;2023-08-06T01:05:33;13.50;99.90
24384;DHT22;12504;52.870;8.798;2023-08-06T01:10:53;13.50;99.90
24384;DHT22;12504;52.870;8.798;2023-08-06T01:13:33;13.50;99.90
24384;DHT22;12504;52.870;8.798;2023-08-06T01:16:03;13.60;99.90
24384;DHT22;12504;52.870;8.798;2023-08-06T01:18:31;13.60;99.90
24384;DHT22;12504;52.870;8.798;2023-08-06T01:20:57;13.60;99.90
24384;DHT22;12504;52.870;8.798;2023-08-06T01:23:23;13.60;99.90
24384;DHT22;12504;52.870;8.798;2023-08-06T01:28:43;13.50;99.90
24384;DHT22;12504;52.870;8.798;2023-08-06T01:31:37;13.50;99.90
24384;DHT22;12504;52.870;8.798;2023-08-06T01:34:00;13.50;99.90
24384;DHT22;12504;52.870;8.798;2023-08-06T01:36:27;13.50;99.90
24384;DHT22;12504;52.870;8.798;2023-08-06T01:38:53;13.60;99.90
24384;DHT22;12504;52.870;8.798;2023-08-06T01:41:19;13.50;99.90
24384;DHT22;12504;52.870;8.798;2023-08-06T01:43:45;13.50;99.90
24384;DHT22;12504;52.870;8.798;2023-08-06T01:46:11;13.50;99.90
24384;DHT22;12504;52.870;8.798;2023-08-06T01:48:37;13.50;99.90
24384;DHT22;12504;52.870;8.798;2023-08-06T01:51:06;13.50;99.90
24384;DHT22;12504;52.870;8.798;2023-08-06T01:53:32;13.50;99.90
24384;DHT22;12504;52.870;8.798;2023-08-06T01:55:58;13.50;99.90
24384;DHT22;12504;52.870;8.798;2023-08-06T01:58:23;13.50;99.90
24384;DHT22;12504;52.870;8.798;2023-08-06T02:00:49;13.40;99.90
24384;DHT22;12504;52.870;8.798;2023-08-06T02:03:15;13.40;99.90
24384;DHT22;12504;52.870;8.798;2023-08-06T02:05:41;13.40;99.90
24384;DHT22;12504;52.870;8.798;2023-08-06T02:08:08;13.40;99.90
24384;DHT22;12504;52.870;8.798;2023-08-06T02:10:33;13.40;99.90
24384;DHT22;12504;52.870;8.798;2023-08-06T02:12:59;13.40;99.90
24384;DHT22;12504;52.870;8.798;2023-08-06T02:15:25;13.30;99.90
24384;DHT22;12504;52.870;8.798;2023-08-06T02:17:50;13.40;99.90
24384;DHT22;12504;52.870;8.798;2023-08-06T02:20:16;13.40;99.90
24384;DHT22;12504;52.870;8.798;2023-08-06T02:22:42;13.40;99.90
24384;DHT22;12504;52.870;8.798;2023-08-06T02:25:07;13.30;99.90
24384;DHT22;12504;52.870;8.798;2023-08-06T02:27:34;13.30;99.90
24384;DHT22;12504;52.870;8.798;2023-08-06T02:30:00;13.30;99.90
24384;DHT22;12504;52.870;8.798;2023-08-06T02:32:26;13.30;99.90
24384;DHT22;12504;52.870;8.798;2023-08-06T02:34:52;13.30;99.90
24384;DHT22;12504;52.870;8.798;2023-08-06T02:37:17;13.30;99.90
24384;DHT22;12504;52.870;8.798;2023-08-06T02:39:44;13.30;99.90
24384;DHT22;12504;52.870;8.798;2023-08-06T02:42:10;13.30;99.90
24384;DHT22;12504;52.870;8.798;2023-08-06T02:44:35;13.30;99.90
24384;DHT22;12504;52.870;8.798;2023-08-06T02:47:01;13.30;99.90
24384;DHT22;12504;52.870;8.798;2023-08-06T02:49:27;13.30;99.90
24384;DHT22;12504;52.870;8.798;2023-08-06T02:51:53;13.30;99.90
24384;DHT22;12504;52.870;8.798;2023-08-06T02:54:19;13.30;99.90
24384;DHT22;12504;52.870;8.798;2023-08-06T02:56:45;13.30;99.90
24384;DHT22;12504;52.870;8.798;2023-08-06T02:59:18;13.30;99.90
24384;DHT22;12504;52.870;8.798;2023-08-06T03:01:59;13.20;99.90
24384;DHT22;12504;52.870;8.798;2023-08-06T03:04:34;13.30;99.90
24384;DHT22;12504;52.870;8.798;2023-08-06T03:06:59;13.30;99.90
24384;DHT22;12504;52.870;8.798;2023-08-06T03:09:33;13.30;99.90
24384;DHT22;12504;52.870;8.798;2023-08-06T03:11:59;13.20;99.90
24384;DHT22;12504;52.870;8.798;2023-08-06T03:14:24;13.20;99.90
24384;DHT22;12504;52.870;8.798;2023-08-06T03:16:50;13.30;99.90
24384;DHT22;12504;52.870;8.798;2023-08-06T03:19:18;13.20;99.90
24384;DHT22;12504;52.870;8.798;2023-08-06T03:21:44;13.20;99.90
24384;DHT22;12504;52.870;8.798;2023-08-06T03:24:09;13.20;99.90
24384;DHT22;12504;52.870;8.798;2023-08-06T03:26:37;13.20;99.90
24384;DHT22;12504;52.870;8.798;2023-08-06T03:29:03;13.20;99.90
24384;DHT22;12504;52.870;8.798;2023-08-06T03:31:31;13.20;99.90
24384;DHT22;12504;52.870;8.798;2023-08-06T03:33:58;13.20;99.90
24384;DHT22;12504;52.870;8.798;2023-08-06T03:36:26;13.20;99.90
24384;DHT22;12504;52.870;8.798;2023-08-06T03:38:52;13.20;99.90
24384;DHT22;12504;52.870;8.798;2023-08-06T03:41:18;13.30;99.90
24384;DHT22;12504;52.870;8.798;2023-08-06T03:43:44;13.30;99.90
24384;DHT22;12504;52.870;8.798;2023-08-06T03:46:17;13.30;99.90
24384;DHT22;12504;52.870;8.798;2023-08-06T03:48:43;13.30;99.90
24384;DHT22;12504;52.870;8.798;2023-08-06T03:51:08;13.30;99.90
24384;DHT22;12504;52.870;8.798;2023-08-06T03:53:35;13.20;99.90
24384;DHT22;12504;52.870;8.798;2023-08-06T03:56:01;13.30;99.90
24384;DHT22;12504;52.870;8.798;2023-08-06T03:58:29;13.30;99.90
24384;DHT22;12504;52.870;8.798;2023-08-06T04:01:00;13.20;99.90
24384;DHT22;12504;52.870;8.798;2023-08-06T04:03:29;13.30;99.90
24384;DHT22;12504;52.870;8.798;2023-08-06T04:05:55;13.30;99.90
24384;DHT22;12504;52.870;8.798;2023-08-06T04:08:20;13.30;99.90
24384;DHT22;12504;52.870;8.798;2023-08-06T04:10:50;13.30;99.90
24384;DHT22;12504;52.870;8.798;2023-08-06T04:13:16;13.30;99.90
24384;DHT22;12504;52.870;8.798;2023-08-06T04:15:42;13.30;99.90
24384;DHT22;12504;52.870;8.798;2023-08-06T04:18:07;13.30;99.90
24384;DHT22;12504;52.870;8.798;2023-08-06T04:20:33;13.30;99.90
24384;DHT22;12504;52.870;8.798;2023-08-06T04:22:59;13.30;99.90
24384;DHT22;12504;52.870;8.798;2023-08-06T04:25:24;13.30;99.90
24384;DHT22;12504;52.870;8.798;2023-08-06T04:27:50;13.30;99.90
24384;DHT22;12504;52.870;8.798;2023-08-06T04:30:16;13.30;99.90
24384;DHT22;12504;52.870;8.798;2023-08-06T04:32:43;13.30;99.90
24384;DHT22;12504;52.870;8.798;2023-08-06T04:35:09;13.30;99.90
24384;DHT22;12504;52.870;8.798;2023-08-06T04:37:36;13.30;99.90
24384;DHT22;12504;52.870;8.798;2023-08-06T04:40:02;13.30;99.90
24384;DHT22;12504;52.870;8.798;2023-08-06T04:42:28;13.30;99.90
24384;DHT22;12504;52.870;8.798;2023-08-06T04:44:53;13.30;99.90
24384;DHT22;12504;52.870;8.798;2023-08-06T04:47:19;13.20;99.90
24384;DHT22;12504;52.870;8.798;2023-08-06T04:49:45;13.20;99.90
24384;DHT22;12504;52.870;8.798;2023-08-06T04:52:10;13.20;99.90
24384;DHT22;12504;52.870;8.798;2023-08-06T04:54:36;13.20;99.90
24384;DHT22;12504;52.870;8.798;2023-08-06T04:57:01;13.20;99.90
24384;DHT22;12504;52.870;8.798;2023-08-06T04:59:27;13.20;99.90
24384;DHT22;12504;52.870;8.798;2023-08-06T05:01:53;13.20;99.90
24384;DHT22;12504;52.870;8.798;2023-08-06T05:04:18;13.20;99.90
24384;DHT22;12504;52.870;8.798;2023-08-06T05:06:44;13.20;99.90
24384;DHT22;12504;52.870;8.798;2023-08-06T05:09:09;13.20;99.90
24384;DHT22;12504;52.870;8.798;2023-08-06T05:11:35;13.20;99.90
24384;DHT22;12504;52.870;8.798;2023-08-06T05:14:00;13.20;99.90
24384;DHT22;12504;52.870;8.798;2023-08-06T05:16:26;13.20;99.90
24384;DHT22;12504;52.870;8.798;2023-08-06T05:18:52;13.20;99.90
24384;DHT22;12504;52.870;8.798;2023-08-06T05:21:17;13.30;99.90
24384;DHT22;12504;52.870;8.798;2023-08-06T05:23:43;13.30;99.90
24384;DHT22;12504;52.870;8.798;2023-08-06T05:26:08;13.30;99.90
24384;DHT22;12504;52.870;8.798;2023-08-06T05:28:34;13.40;99.90
24384;DHT22;12504;52.870;8.798;2023-08-06T05:31:04;13.50;99.90
24384;DHT22;12504;52.870;8.798;2023-08-06T05:33:30;13.50;99.90
24384;DHT22;12504;52.870;8.798;2023-08-06T05:35:55;13.60;99.90
24384;DHT22;12504;52.870;8.798;2023-08-06T05:38:21;13.60;99.90
24384;DHT22;12504;52.870;8.798;2023-08-06T05:40:46;13.70;99.90
24384;DHT22;12504;52.870;8.798;2023-08-06T05:43:13;13.80;99.90
24384;DHT22;12504;52.870;8.798;2023-08-06T05:45:38;13.80;99.90
24384;DHT22;12504;52.870;8.798;2023-08-06T05:48:04;13.80;99.90
24384;DHT22;12504;52.870;8.798;2023-08-06T05:50:30;13.80;99.90
24384;DHT22;12504;52.870;8.798;2023-08-06T05:52:55;13.90;99.90
24384;DHT22;12504;52.870;8.798;2023-08-06T05:55:21;13.90;99.90
24384;DHT22;12504;52.870;8.798;2023-08-06T05:57:47;14.00;99.90
24384;DHT22;12504;52.870;8.798;2023-08-06T06:00:13;14.00;99.90
24384;DHT22;12504;52.870;8.798;2023-08-06T06:02:38;14.00;99.90
24384;DHT22;12504;52.870;8.798;2023-08-06T06:05:04;14.10;99.90
24384;DHT22;12504;52.870;8.798;2023-08-06T06:07:30;14.20;99.90
24384;DHT22;12504;52.870;8.798;2023-08-06T06:09:55;14.20;99.90
24384;DHT22;12504;52.870;8.798;2023-08-06T06:12:21;14.20;99.90
24384;DHT22;12504;52.870;8.798;2023-08-06T06:14:48;14.20;99.90
24384;DHT22;12504;52.870;8.798;2023-08-06T06:17:13;14.20;99.90
24384;DHT22;12504;52.870;8.798;2023-08-06T06:19:39;14.30;99.90
24384;DHT22;12504;52.870;8.798;2023-08-06T06:22:04;14.30;99.90
24384;DHT22;12504;52.870;8.798;2023-08-06T06:24:30;14.40;99.90
24384;DHT22;12504;52.870;8.798;2023-08-06T06:26:55;14.40;99.90
24384;DHT22;12504;52.870;8.798;2023-08-06T06:29:21;14.50;99.90
24384;DHT22;12504;52.870;8.798;2023-08-06T06:31:47;14.50;99.90
24384;DHT22;12504;52.870;8.798;2023-08-06T06:34:12;14.70;99.90
24384;DHT22;12504;52.870;8.798;2023-08-06T06:36:38;14.90;99.90
24384;DHT22;12504;52.870;8.798;2023-08-06T06:39:05;14.70;99.90
24384;DHT22;12504;52.870;8.798;2023-08-06T06:41:30;14.70;99.90
24384;DHT22;12504;52.870;8.798;2023-08-06T06:44:03;14.90;99.90
24384;DHT22;12504;52.870;8.798;2023-08-06T06:46:29;15.10;99.90
24384;DHT22;12504;52.870;8.798;2023-08-06T06:48:55;15.20;99.90
24384;DHT22;12504;52.870;8.798;2023-08-06T06:51:21;15.20;99.90
24384;DHT22;12504;52.870;8.798;2023-08-06T06:53:46;15.20;99.90
24384;DHT22;12504;52.870;8.798;2023-08-06T06:56:12;15.30;99.90
24384;DHT22;12504;52.870;8.798;2023-08-06T06:58:38;15.40;99.90
24384;DHT22;12504;52.870;8.798;2023-08-06T07:01:06;15.40;99.90
24384;DHT22;12504;52.870;8.798;2023-08-06T07:03:32;15.50;99.90
24384;DHT22;12504;52.870;8.798;2023-08-06T07:05:58;15.40;99.90
24384;DHT22;12504;52.870;8.798;2023-08-06T07:08:25;15.40;99.90
24384;DHT22;12504;52.870;8.798;2023-08-06T07:10:58;15.40;99.90
24384;DHT22;12504;52.870;8.798;2023-08-06T07:13:24;15.40;99.90
24384;DHT22;12504;52.870;8.798;2023-08-06T07:15:50;15.50;99.90
24384;DHT22;12504;52.870;8.798;2023-08-06T07:18:16;15.50;99.90
24384;DHT22;12504;52.870;8.798;2023-08-06T07:20:42;15.60;99.90
24384;DHT22;12504;52.870;8.798;2023-08-06T07:23:13;15.80;99.90
24384;DHT22;12504;52.870;8.798;2023-08-06T07:25:38;15.70;99.90
24384;DHT22;12504;52.870;8.798;2023-08-06T07:28:04;15.90;99.90
24384;DHT22;12504;52.870;8.798;2023-08-06T07:30:29;16.00;99.90
24384;DHT22;12504;52.870;8.798;2023-08-06T07:32:55;16.00;99.90
24384;DHT22;12504;52.870;8.798;2023-08-06T07:35:20;16.00;99.90
24384;DHT22;12504;52.870;8.798;2023-08-06T07:37:46;16.00;99.90
24384;DHT22;12504;52.870;8.798;2023-08-06T07:40:12;16.10;99.90
24384;DHT22;12504;52.870;8.798;2023-08-06T07:42:37;16.10;99.90
24384;DHT22;12504;52.870;8.798;2023-08-06T07:45:03;16.30;99.90
24384;DHT22;12504;52.870;8.798;2023-08-06T07:47:29;16.10;99.90
24384;DHT22;12504;52.870;8.798;2023-08-06T07:49:55;16.20;99.90
24384;DHT22;12504;52.870;8.798;2023-08-06T07:52:20;16.30;99.90
24384;DHT22;12504;52.870;8.798;2023-08-06T07:54:46;16.40;99.90
24384;DHT22;12504;52.870;8.798;2023-08-06T07:57:12;16.60;99.90
24384;DHT22;12504;52.870;8.798;2023-08-06T07:59:39;16.80;99.90
24384;DHT22;12504;52.870;8.798;2023-08-06T08:02:05;16.40;99.90
24384;DHT22;12504;52.870;8.798;2023-08-06T08:04:31;16.50;99.90
24384;DHT22;12504;52.870;8.798;2023-08-06T08:06:56;16.50;99.90
24384;DHT22;12504;52.870;8.798;2023-08-06T08:09:22;16.50;99.90
24384;DHT22;12504;52.870;8.798;2023-08-06T08:11:48;16.60;99.90
24384;DHT22;12504;52.870;8.798;2023-08-06T08:14:13;16.70;99.90
24384;DHT22;12504;52.870;8.798;2023-08-06T08:16:39;16.80;99.90
24384;DHT22;12504;52.870;8.798;2023-08-06T08:19:05;17.00;99.90
24384;DHT22;12504;52.870;8.798;2023-08-06T08:21:30;17.30;99.90
24384;DHT22;12504;52.870;8.798;2023-08-06T08:23:56;17.50;99.90
24384;DHT22;12504;52.870;8.798;2023-08-06T08:26:21;17.60;99.90
24384;DHT22;12504;52.870;8.798;2023-08-06T08:28:47;17.90;99.90
24384;DHT22;12504;52.870;8.798;2023-08-06T08:31:13;18.00;99.90
24384;DHT22;12504;52.870;8.798;2023-08-06T08:33:39;17.80;99.90
24384;DHT22;12504;52.870;8.798;2023-08-06T08:36:05;17.40;99.90
24384;DHT22;12504;52.870;8.798;2023-08-06T08:38:30;17.40;99.90
24384;DHT22;12504;52.870;8.798;2023-08-06T08:40:56;17.30;99.90
24384;DHT22;12504;52.870;8.798;2023-08-06T08:43:22;17.20;99.90
24384;DHT22;12504;52.870;8.798;2023-08-06T08:45:51;16.90;99.90
24384;DHT22;12504;52.870;8.798;2023-08-06T08:48:18;16.90;99.90
24384;DHT22;12504;52.870;8.798;2023-08-06T08:50:45;16.90;99.90
24384;DHT22;12504;52.870;8.798;2023-08-06T08:53:13;17.20;99.90
24384;DHT22;12504;52.870;8.798;2023-08-06T08:55:39;17.50;99.90
24384;DHT22;12504;52.870;8.798;2023-08-06T08:58:05;17.80;99.90
24384;DHT22;12504;52.870;8.798;2023-08-06T09:00:32;18.30;99.90
24384;DHT22;12504;52.870;8.798;2023-08-06T09:02:59;18.70;99.90
24384;DHT22;12504;52.870;8.798;2023-08-06T09:05:28;19.00;99.90
24384;DHT22;12504;52.870;8.798;2023-08-06T09:08:03;19.20;99.90
24384;DHT22;12504;52.870;8.798;2023-08-06T09:10:29;19.30;99.90
24384;DHT22;12504;52.870;8.798;2023-08-06T09:12:56;19.30;99.90
24384;DHT22;12504;52.870;8.798;2023-08-06T09:15:26;19.50;99.90
24384;DHT22;12504;52.870;8.798;2023-08-06T09:17:53;19.40;99.90
24384;DHT22;12504;52.870;8.798;2023-08-06T09:20:19;19.40;99.90
24384;DHT22;12504;52.870;8.798;2023-08-06T09:22:45;19.50;99.90
24384;DHT22;12504;52.870;8.798;2023-08-06T09:25:11;19.40;99.90
24384;DHT22;12504;52.870;8.798;2023-08-06T09:27:39;19.40;99.90
24384;DHT22;12504;52.870;8.798;2023-08-06T09:30:06;19.20;99.90
24384;DHT22;12504;52.870;8.798;2023-08-06T09:32:48;19.30;99.90
24384;DHT22;12504;52.870;8.798;2023-08-06T09:35:19;19.50;99.90
24384;DHT22;12504;52.870;8.798;2023-08-06T09:37:45;19.50;99.90
24384;DHT22;12504;52.870;8.798;2023-08-06T09:40:28;19.60;99.90
24384;DHT22;12504;52.870;8.798;2023-08-06T09:42:53;19.80;99.90
24384;DHT22;12504;52.870;8.798;2023-08-06T09:45:20;20.00;99.90
24384;DHT22;12504;52.870;8.798;2023-08-06T09:47:48;19.80;99.90
24384;DHT22;12504;52.870;8.798;2023-08-06T09:50:18;19.60;99.90
24384;DHT22;12504;52.870;8.798;2023-08-06T09:52:45;19.40;99.90
24384;DHT22;12504;52.870;8.798;2023-08-06T09:55:12;19.60;99.90
24384;DHT22;12504;52.870;8.798;2023-08-06T09:57:38;19.60;99.90
24384;DHT22;12504;52.870;8.798;2023-08-06T10:00:04;19.50;99.90
24384;DHT22;12504;52.870;8.798;2023-08-06T10:02:39;19.50;99.90
24384;DHT22;12504;52.870;8.798;2023-08-06T10:05:06;19.60;99.90
24384;DHT22;12504;52.870;8.798;2023-08-06T10:07:31;19.80;99.90
24384;DHT22;12504;52.870;8.798;2023-08-06T10:09:58;19.90;99.90
24384;DHT22;12504;52.870;8.798;2023-08-06T10:12:26;20.00;99.90
24384;DHT22;12504;52.870;8.798;2023-08-06T10:14:55;20.00;99.90
24384;DHT22;12504;52.870;8.798;2023-08-06T10:17:23;19.90;99.90
24384;DHT22;12504;52.870;8.798;2023-08-06T10:19:50;20.10;99.90
24384;DHT22;12504;52.870;8.798;2023-08-06T10:22:17;19.90;99.90
24384;DHT22;12504;52.870;8.798;2023-08-06T10:24:47;19.90;99.90
24384;DHT22;12504;52.870;8.798;2023-08-06T10:27:13;20.00;99.90
24384;DHT22;12504;52.870;8.798;2023-08-06T10:29:38;20.40;99.90
24384;DHT22;12504;52.870;8.798;2023-08-06T10:32:05;20.60;99.90
24384;DHT22;12504;52.870;8.798;2023-08-06T10:34:53;21.10;99.90
24384;DHT22;12504;52.870;8.798;2023-08-06T10:37:19;21.10;99.90
24384;DHT22;12504;52.870;8.798;2023-08-06T10:39:53;20.90;99.90
24384;DHT22;12504;52.870;8.798;2023-08-06T10:42:20;20.80;99.90
24384;DHT22;12504;52.870;8.798;2023-08-06T10:45:18;20.70;99.90
24384;DHT22;12504;52.870;8.798;2023-08-06T10:47:45;20.50;99.90
24384;DHT22;12504;52.870;8.798;2023-08-06T10:50:12;20.30;99.90
24384;DHT22;12504;52.870;8.798;2023-08-06T10:52:39;20.10;99.90
24384;DHT22;12504;52.870;8.798;2023-08-06T10:55:05;20.30;99.90
24384;DHT22;12504;52.870;8.798;2023-08-06T10:57:31;20.40;99.90
24384;DHT22;12504;52.870;8.798;2023-08-06T10:59:59;20.70;99.90
24384;DHT22;12504;52.870;8.798;2023-08-06T11:02:26;20.90;99.90
24384;DHT22;12504;52.870;8.798;2023-08-06T11:04:53;21.00;99.90
24384;DHT22;12504;52.870;8.798;2023-08-06T11:07:19;21.30;99.90
24384;DHT22;12504;52.870;8.798;2023-08-06T11:09:50;21.20;99.90
24384;DHT22;12504;52.870;8.798;2023-08-06T11:12:19;21.40;99.90
24384;DHT22;12504;52.870;8.798;2023-08-06T11:14:50;21.60;99.90
24384;DHT22;12504;52.870;8.798;2023-08-06T11:17:16;22.10;99.90
24384;DHT22;12504;52.870;8.798;2023-08-06T11:19:41;22.50;99.90
24384;DHT22;12504;52.870;8.798;2023-08-06T11:22:07;22.60;99.90
24384;DHT22;12504;52.870;8.798;2023-08-06T11:24:33;22.60;99.90
24384;DHT22;12504;52.870;8.798;2023-08-06T11:26:58;22.40;99.90
24384;DHT22;12504;52.870;8.798;2023-08-06T11:29:24;22.80;99.90
24384;DHT22;12504;52.870;8.798;2023-08-06T11:31:49;24.30;99.90
24384;DHT22;12504;52.870;8.798;2023-08-06T11:34:15;25.20;99.90
24384;DHT22;12504;52.870;8.798;2023-08-06T11:36:42;25.40;99.90
24384;DHT22;12504;52.870;8.798;2023-08-06T11:39:09;25.70;99.90
24384;DHT22;12504;52.870;8.798;2023-08-06T11:41:36;24.60;99.90
24384;DHT22;12504;52.870;8.798;2023-08-06T11:44:03;25.40;99.90
24384;DHT22;12504;52.870;8.798;2023-08-06T11:46:29;25.90;99.90
24384;DHT22;12504;52.870;8.798;2023-08-06T11:49:14;25.40;99.90
24384;DHT22;12504;52.870;8.798;2023-08-06T11:51:40;24.20;99.90
24384;DHT22;12504;52.870;8.798;2023-08-06T11:54:05;23.40;99.90
24384;DHT22;12504;52.870;8.798;2023-08-06T11:56:32;23.00;99.90
24384;DHT22;12504;52.870;8.798;2023-08-06T11:58:58;23.10;99.90
24384;DHT22;12504;52.870;8.798;2023-08-06T12:01:23;23.10;99.90
24384;DHT22;12504;52.870;8.798;2023-08-06T12:03:50;23.10;99.90
24384;DHT22;12504;52.870;8.798;2023-08-06T12:06:16;22.80;99.90
24384;DHT22;12504;52.870;8.798;2023-08-06T12:08:42;22.40;99.90
24384;DHT22;12504;52.870;8.798;2023-08-06T12:11:07;22.10;99.90
24384;DHT22;12504;52.870;8.798;2023-08-06T12:13:34;22.00;99.90
24384;DHT22;12504;52.870;8.798;2023-08-06T12:15:59;22.00;99.90
24384;DHT22;12504;52.870;8.798;2023-08-06T12:18:25;22.00;99.90
24384;DHT22;12504;52.870;8.798;2023-08-06T12:20:51;22.10;99.90
24384;DHT22;12504;52.870;8.798;2023-08-06T12:23:17;22.10;99.90
24384;DHT22;12504;52.870;8.798;2023-08-06T12:25:43;22.30;99.90
24384;DHT22;12504;52.870;8.798;2023-08-06T12:28:10;23.70;99.90
24384;DHT22;12504;52.870;8.798;2023-08-06T12:30:36;24.00;99.90
24384;DHT22;12504;52.870;8.798;2023-08-06T12:33:02;23.90;99.90
24384;DHT22;12504;52.870;8.798;2023-08-06T12:35:27;23.40;99.90
24384;DHT22;12504;52.870;8.798;2023-08-06T12:37:53;24.40;99.90
24384;DHT22;12504;52.870;8.798;2023-08-06T12:40:22;25.50;99.90
24384;DHT22;12504;52.870;8.798;2023-08-06T12:42:50;26.30;99.90
24384;DHT22;12504;52.870;8.798;2023-08-06T12:45:16;26.90;99.90
24384;DHT22;12504;52.870;8.798;2023-08-06T12:47:42;27.60;99.90
24384;DHT22;12504;52.870;8.798;2023-08-06T12:50:07;27.80;99.90
24384;DHT22;12504;52.870;8.798;2023-08-06T12:52:33;27.40;99.90
24384;DHT22;12504;52.870;8.798;2023-08-06T12:54:59;27.50;99.90
24384;DHT22;12504;52.870;8.798;2023-08-06T12:57:25;26.60;99.90
24384;DHT22;12504;52.870;8.798;2023-08-06T12:59:52;25.90;99.90
24384;DHT22;12504;52.870;8.798;2023-08-06T13:02:17;25.20;99.90
24384;DHT22;12504;52.870;8.798;2023-08-06T13:04:43;25.00;99.90
24384;DHT22;12504;52.870;8.798;2023-08-06T13:07:09;25.70;99.90
24384;DHT22;12504;52.870;8.798;2023-08-06T13:09:34;26.00;99.90
24384;DHT22;12504;52.870;8.798;2023-08-06T13:12:00;25.90;99.90
24384;DHT22;12504;52.870;8.798;2023-08-06T13:14:30;26.20;99.90
24384;DHT22;12504;52.870;8.798;2023-08-06T13:16:55;26.90;99.90
24384;DHT22;12504;52.870;8.798;2023-08-06T13:19:21;27.60;99.90
24384;DHT22;12504;52.870;8.798;2023-08-06T13:24:14;27.50;99.90
24384;DHT22;12504;52.870;8.798;2023-08-06T13:26:39;27.10;99.90
24384;DHT22;12504;52.870;8.798;2023-08-06T13:29:05;26.70;99.90
24384;DHT22;12504;52.870;8.798;2023-08-06T13:31:32;26.20;99.90
24384;DHT22;12504;52.870;8.798;2023-08-06T13:33:58;26.00;99.90
24384;DHT22;12504;52.870;8.798;2023-08-06T13:36:27;25.60;99.90
24384;DHT22;12504;52.870;8.798;2023-08-06T13:38:53;25.30;99.90
24384;DHT22;12504;52.870;8.798;2023-08-06T13:41:19;25.30;99.90
24384;DHT22;12504;52.870;8.798;2023-08-06T13:43:45;25.40;99.90
24384;DHT22;12504;52.870;8.798;2023-08-06T13:46:11;25.10;99.90
24384;DHT22;12504;52.870;8.798;2023-08-06T13:48:42;25.00;99.90
24384;DHT22;12504;52.870;8.798;2023-08-06T13:51:08;25.40;99.90
24384;DHT22;12504;52.870;8.798;2023-08-06T13:53:34;25.90;99.90
24384;DHT22;12504;52.870;8.798;2023-08-06T13:55:59;25.90;99.90
24384;DHT22;12504;52.870;8.798;2023-08-06T13:58:25;25.60;99.90
24384;DHT22;12504;52.870;8.798;2023-08-06T14:00:52;25.60;99.90
24384;DHT22;12504;52.870;8.798;2023-08-06T14:03:19;25.20;99.90
24384;DHT22;12504;52.870;8.798;2023-08-06T14:05:45;24.20;99.90
24384;DHT22;12504;52.870;8.798;2023-08-06T14:08:11;23.50;99.90
24384;DHT22;12504;52.870;8.798;2023-08-06T14:10:36;22.80;99.90
24384;DHT22;12504;52.870;8.798;2023-08-06T14:13:02;22.40;99.90
24384;DHT22;12504;52.870;8.798;2023-08-06T14:15:28;22.40;99.90
24384;DHT22;12504;52.870;8.798;2023-08-06T14:17:53;23.00;99.90
24384;DHT22;12504;52.870;8.798;2023-08-06T14:20:19;24.00;99.90
24384;DHT22;12504;52.870;8.798;2023-08-06T14:22:44;24.90;99.90
24384;DHT22;12504;52.870;8.798;2023-08-06T14:25:10;25.60;99.90
24384;DHT22;12504;52.870;8.798;2023-08-06T14:27:36;25.40;99.90
24384;DHT22;12504;52.870;8.798;2023-08-06T14:30:06;25.60;99.90
24384;DHT22;12504;52.870;8.798;2023-08-06T14:32:32;25.00;99.90
24384;DHT22;12504;52.870;8.798;2023-08-06T14:34:57;24.30;99.90
24384;DHT22;12504;52.870;8.798;2023-08-06T14:37:24;24.20;99.90
24384;DHT22;12504;52.870;8.798;2023-08-06T14:39:51;24.20;99.90
24384;DHT22;12504;52.870;8.798;2023-08-06T14:42:17;24.40;99.90
24384;DHT22;12504;52.870;8.798;2023-08-06T14:44:43;24.30;99.90
24384;DHT22;12504;52.870;8.798;2023-08-06T14:47:09;24.30;99.90
24384;DHT22;12504;52.870;8.798;2023-08-06T14:49:35;23.60;99.90
24384;DHT22;12504;52.870;8.798;2023-08-06T14:52:03;23.20;99.90
24384;DHT22;12504;52.870;8.798;2023-08-06T14:54:29;22.90;99.90
24384;DHT22;12504;52.870;8.798;2023-08-06T14:56:54;22.60;99.90
24384;DHT22;12504;52.870;8.798;2023-08-06T14:59:20;22.80;99.90
24384;DHT22;12504;52.870;8.798;2023-08-06T15:01:45;23.30;99.90
24384;DHT22;12504;52.870;8.798;2023-08-06T15:04:11;23.60;99.90
24384;DHT22;12504;52.870;8.798;2023-08-06T15:06:36;24.30;99.90
24384;DHT22;12504;52.870;8.798;2023-08-06T15:09:02;24.50;99.90
24384;DHT22;12504;52.870;8.798;2023-08-06T15:11:28;24.20;99.90
24384;DHT22;12504;52.870;8.798;2023-08-06T15:13:53;23.80;99.90
24384;DHT22;12504;52.870;8.798;2023-08-06T15:16:19;23.50;99.90
24384;DHT22;12504;52.870;8.798;2023-08-06T15:18:45;23.20;99.90
24384;DHT22;12504;52.870;8.798;2023-08-06T15:21:10;23.00;99.90
24384;DHT22;12504;52.870;8.798;2023-08-06T15:23:36;23.20;99.90
24384;DHT22;12504;52.870;8.798;2023-08-06T15:26:02;23.70;99.90
24384;DHT22;12504;52.870;8.798;2023-08-06T15:28:28;24.00;99.90
24384;DHT22;12504;52.870;8.798;2023-08-06T15:30:54;24.30;99.90
24384;DHT22;12504;52.870;8.798;2023-08-06T15:33:21;24.60;99.90
24384;DHT22;12504;52.870;8.798;2023-08-06T15:35:47;24.60;99.90